createdAt,value
2017-09-04T00:00:52.104Z,100961.31
2017-09-04T00:03:19.744Z,100962.33
2017-09-04T00:05:47.386Z,100960.67
2017-09-04T00:08:15.005Z,100960.95
2017-09-04T00:10:42.610Z,100956.25
2017-09-04T00:13:10.243Z,100964.75
2017-09-04T00:15:37.837Z,100954.77
2017-09-04T00:18:05.461Z,100960.94
2017-09-04T00:20:33.045Z,100956.84
2017-09-04T00:23:00.687Z,100960.45
2017-09-04T00:25:28.311Z,100960.30
2017-09-04T00:27:55.938Z,100965.73
2017-09-04T00:30:23.577Z,100961.66
2017-09-04T00:32:51.218Z,100964.72
2017-09-04T00:35:18.893Z,100959.94
2017-09-04T00:37:46.494Z,100957.82
2017-09-04T00:40:14.112Z,100962.37
2017-09-04T00:42:41.714Z,100964.81
2017-09-04T00:45:09.314Z,100958.73
2017-09-04T00:47:36.922Z,100960.08
2017-09-04T00:50:04.549Z,100952.53
2017-09-04T00:52:32.168Z,100952.13
2017-09-04T00:54:59.810Z,100957.67
2017-09-04T00:57:27.451Z,100957.53
2017-09-04T00:59:55.101Z,100959.52
2017-09-04T01:02:22.718Z,100958.00
2017-09-04T01:04:50.372Z,100954.41
2017-09-04T01:07:17.995Z,100956.23
2017-09-04T01:09:45.626Z,100953.56
2017-09-04T01:12:13.247Z,100953.09
2017-09-04T01:14:40.874Z,100954.30
2017-09-04T01:17:08.514Z,100951.23
2017-09-04T01:19:36.135Z,100959.36
2017-09-04T01:22:03.757Z,100958.45
2017-09-04T01:24:31.419Z,100962.50
2017-09-04T01:26:59.078Z,100959.30
2017-09-04T01:29:26.762Z,100959.30
2017-09-04T01:31:54.411Z,100955.89
2017-09-04T01:34:22.061Z,100954.52
2017-09-04T01:36:49.722Z,100958.58
2017-09-04T01:39:17.414Z,100954.96
2017-09-04T01:41:45.062Z,100956.87
2017-09-04T01:44:12.688Z,100956.69
2017-09-04T01:46:40.341Z,100961.28
2017-09-04T01:49:08.053Z,100960.97
2017-09-04T01:51:35.682Z,100962.91
2017-09-04T01:54:03.314Z,100956.60
2017-09-04T01:56:30.931Z,100965.16
2017-09-04T01:58:58.571Z,100960.39
2017-09-04T02:01:26.166Z,100955.42
2017-09-04T02:03:53.803Z,100961.41
2017-09-04T02:06:21.435Z,100963.66
2017-09-04T02:08:49.068Z,100961.11
2017-09-04T02:11:16.699Z,100955.73
2017-09-04T02:13:44.318Z,100964.89
2017-09-04T02:16:11.978Z,100969.26
2017-09-04T02:18:39.578Z,100963.09
2017-09-04T02:21:07.210Z,100957.98
2017-09-04T02:23:34.814Z,100953.47
2017-09-04T02:26:02.439Z,100956.48
2017-09-04T02:28:30.066Z,100958.81
2017-09-04T02:30:57.734Z,100959.73
2017-09-04T02:33:25.403Z,100955.45
2017-09-04T02:35:53.045Z,100955.28
2017-09-04T02:38:20.643Z,100955.30
2017-09-04T02:40:48.287Z,100956.88
2017-09-04T02:43:15.912Z,100956.42
2017-09-04T02:45:43.534Z,100953.34
2017-09-04T02:48:11.167Z,100952.72
2017-09-04T02:50:38.808Z,100953.56
2017-09-04T02:53:06.426Z,100949.63
2017-09-04T02:55:34.071Z,100957.72
2017-09-04T02:58:01.679Z,100953.98
2017-09-04T03:00:29.380Z,100953.83
2017-09-04T03:02:56.987Z,100956.72
2017-09-04T03:05:24.623Z,100952.86
2017-09-04T03:07:52.313Z,100944.64
2017-09-04T03:10:19.930Z,100945.36
2017-09-04T03:12:47.524Z,100938.23
2017-09-04T03:15:15.234Z,100943.62
2017-09-04T03:17:42.838Z,100946.90
2017-09-04T03:20:10.498Z,100944.48
2017-09-04T03:22:38.153Z,100945.00
2017-09-04T03:25:05.766Z,100936.81
2017-09-04T03:27:33.394Z,100940.39
2017-09-04T03:30:00.990Z,100942.82
2017-09-04T03:32:28.690Z,100946.15
2017-09-04T03:34:56.290Z,100947.95
2017-09-04T03:37:23.926Z,100946.09
2017-09-04T03:39:51.532Z,100945.84
2017-09-04T03:42:19.150Z,100950.70
2017-09-04T03:44:46.739Z,100950.97
2017-09-04T03:47:14.517Z,100956.30
2017-09-04T03:49:42.105Z,100957.91
2017-09-04T03:52:09.694Z,100964.26
2017-09-04T03:54:37.314Z,100962.06
2017-09-04T03:57:04.910Z,100964.02
2017-09-04T03:59:32.570Z,100967.81
2017-09-04T04:02:00.221Z,100964.39
2017-09-04T04:04:27.872Z,100963.98
2017-09-04T04:06:55.478Z,100968.88
2017-09-04T04:09:23.116Z,100971.16
2017-09-04T04:11:50.742Z,100975.63
2017-09-04T04:14:18.382Z,100972.37
2017-09-04T04:16:45.988Z,100970.73
2017-09-04T04:19:13.714Z,100970.86
2017-09-04T04:21:41.302Z,100966.41
2017-09-04T04:24:09.326Z,100969.17
2017-09-04T04:26:36.922Z,100968.48
2017-09-04T04:29:04.504Z,100969.81
2017-09-04T04:31:32.253Z,100957.28
2017-09-04T04:33:59.874Z,100964.04
2017-09-04T04:36:27.515Z,100967.67
2017-09-04T04:38:55.118Z,100963.07
2017-09-04T04:41:22.768Z,100964.77
2017-09-04T04:43:50.563Z,100973.84
2017-09-04T04:46:18.232Z,100971.94
2017-09-04T04:48:45.838Z,100968.09
2017-09-04T04:51:13.474Z,100974.16
2017-09-04T04:53:41.094Z,100975.56
2017-09-04T04:56:09.006Z,100976.91
2017-09-04T04:58:36.607Z,100978.45
2017-09-04T05:01:04.226Z,100979.09
2017-09-04T05:03:31.937Z,100985.41
2017-09-04T05:05:59.614Z,100983.73
2017-09-04T05:08:27.347Z,100988.03
2017-09-04T05:10:54.934Z,100986.39
2017-09-04T05:13:22.606Z,100978.50
2017-09-04T05:15:50.370Z,100986.48
2017-09-04T05:18:18.159Z,100985.07
2017-09-04T05:20:45.771Z,100993.95
2017-09-04T05:23:13.374Z,100983.78
2017-09-04T05:25:41.023Z,100999.61
2017-09-04T05:28:08.618Z,100998.48
2017-09-04T05:30:36.555Z,100995.23
2017-09-04T05:33:04.256Z,100992.03
2017-09-04T05:35:31.836Z,100988.95
2017-09-04T05:37:59.563Z,100990.07
2017-09-04T05:40:27.171Z,100989.80
2017-09-04T05:42:54.966Z,100988.75
2017-09-04T05:45:22.578Z,100989.15
2017-09-04T05:47:50.242Z,100987.25
2017-09-04T05:50:17.894Z,100991.94
2017-09-04T05:52:45.566Z,100986.83
2017-09-04T05:55:13.202Z,100987.38
2017-09-04T05:57:41.043Z,100991.77
2017-09-04T06:00:08.678Z,100988.95
2017-09-04T06:02:36.287Z,100989.78
2017-09-04T06:05:03.934Z,100990.45
2017-09-04T06:07:31.542Z,100980.30
2017-09-04T06:09:59.210Z,100982.20
2017-09-04T06:12:26.847Z,100983.81
2017-09-04T06:14:54.513Z,100993.77
2017-09-04T06:17:22.206Z,100987.72
2017-09-04T06:19:51.987Z,100990.98
2017-09-04T06:22:19.646Z,100996.47
2017-09-04T06:24:47.339Z,100992.53
2017-09-04T06:27:14.986Z,100995.35
2017-09-04T06:29:42.820Z,100998.82
2017-09-04T06:32:10.475Z,100991.45
2017-09-04T06:34:38.075Z,100990.62
2017-09-04T06:37:05.744Z,100996.36
2017-09-04T06:39:33.358Z,100997.70
2017-09-04T06:42:01.007Z,100996.73
2017-09-04T06:44:28.718Z,101000.33
2017-09-04T06:46:56.386Z,101011.62
2017-09-04T06:49:24.028Z,101013.45
2017-09-04T06:51:51.666Z,101013.26
2017-09-04T06:54:19.318Z,101019.28
2017-09-04T06:56:46.936Z,101024.71
2017-09-04T06:59:14.556Z,101032.33
2017-09-04T07:01:42.223Z,101037.70
2017-09-04T07:04:09.866Z,101038.09
2017-09-04T07:06:37.475Z,101030.51
2017-09-04T07:09:05.076Z,101033.03
2017-09-04T07:11:32.740Z,101040.28
2017-09-04T07:14:00.362Z,101039.66
2017-09-04T07:16:28.013Z,101037.88
2017-09-04T07:18:55.621Z,101031.84
2017-09-04T07:21:23.286Z,101036.56
2017-09-04T07:23:50.891Z,101039.66
2017-09-04T07:26:18.515Z,101044.73
2017-09-04T07:28:46.186Z,101053.34
2017-09-04T07:31:13.862Z,101054.84
2017-09-04T07:33:41.474Z,101058.14
2017-09-04T07:36:09.119Z,101064.25
2017-09-04T07:38:36.747Z,101071.72
2017-09-04T07:41:04.408Z,101085.29
2017-09-04T07:43:32.002Z,101076.25
2017-09-04T07:45:59.654Z,101078.56
2017-09-04T07:48:27.251Z,101078.52
2017-09-04T07:50:54.946Z,101076.56
2017-09-04T07:53:22.566Z,101078.61
2017-09-04T07:55:50.170Z,101081.77
2017-09-04T07:58:17.807Z,101080.31
2017-09-04T08:00:45.430Z,101073.59
2017-09-04T08:03:13.082Z,101073.52
2017-09-04T08:05:40.682Z,101081.00
2017-09-04T08:08:08.363Z,101077.61
2017-09-04T08:10:35.962Z,101075.55
2017-09-04T08:13:03.583Z,101076.14
2017-09-04T08:15:31.214Z,101078.70
2017-09-04T08:17:58.842Z,101079.30
2017-09-04T08:20:26.473Z,101077.70
2017-09-04T08:22:54.082Z,101079.05
2017-09-04T08:25:21.684Z,101079.72
2017-09-04T08:27:49.302Z,101081.26
2017-09-04T08:30:16.903Z,101081.47
2017-09-04T08:32:44.614Z,101078.28
2017-09-04T08:35:12.255Z,101083.78
2017-09-04T08:37:39.852Z,101086.97
2017-09-04T08:40:07.498Z,101079.53
2017-09-04T08:42:35.253Z,101087.02
2017-09-04T08:45:02.900Z,101083.97
2017-09-04T08:47:30.505Z,101088.90
2017-09-04T08:49:58.131Z,101089.39
2017-09-04T08:52:25.775Z,101089.12
2017-09-04T08:54:53.411Z,101082.76
2017-09-04T08:57:21.095Z,101092.19
2017-09-04T08:59:48.745Z,101090.00
2017-09-04T09:02:16.340Z,101091.46
2017-09-04T09:04:44.014Z,101086.17
2017-09-04T09:07:11.614Z,101081.00
2017-09-04T09:09:39.279Z,101084.67
2017-09-04T09:12:06.898Z,101085.42
2017-09-04T09:14:34.491Z,101080.02
2017-09-04T09:17:02.194Z,101080.01
2017-09-04T09:19:29.806Z,101074.52
2017-09-04T09:21:57.437Z,101063.47
2017-09-04T09:24:25.165Z,101070.92
2017-09-04T09:26:52.863Z,101060.62
2017-09-04T09:29:20.463Z,101070.14
2017-09-04T09:31:48.102Z,101067.28
2017-09-04T09:34:15.699Z,101066.04
2017-09-04T09:36:43.335Z,101069.89
2017-09-04T09:39:11.066Z,101066.92
2017-09-04T09:41:38.740Z,101065.50
2017-09-04T09:44:06.340Z,101069.94
2017-09-04T09:46:33.952Z,101071.65
2017-09-04T09:49:01.570Z,101065.44
2017-09-04T09:51:29.174Z,101065.28
2017-09-04T09:53:56.797Z,101068.28
2017-09-04T09:56:24.410Z,101075.45
2017-09-04T09:58:52.046Z,101076.38
2017-09-04T10:01:19.700Z,101076.16
2017-09-04T10:03:47.518Z,101079.26
2017-09-04T10:06:15.114Z,101077.73
2017-09-04T10:08:42.727Z,101080.50
2017-09-04T10:11:10.343Z,101082.97
2017-09-04T10:13:37.932Z,101086.20
2017-09-04T10:16:05.654Z,101087.05
2017-09-04T10:18:33.250Z,101079.63
2017-09-04T10:21:00.885Z,101091.30
2017-09-04T10:23:28.470Z,101091.76
2017-09-04T10:25:56.138Z,101088.81
2017-09-04T10:28:23.743Z,101092.44
2017-09-04T10:30:51.358Z,101090.50
2017-09-04T10:33:18.963Z,101088.51
2017-09-04T10:35:46.579Z,101090.39
2017-09-04T10:38:14.200Z,101090.39
2017-09-04T10:40:41.837Z,101083.84
2017-09-04T10:43:09.490Z,101077.91
2017-09-04T10:45:37.115Z,101076.81
2017-09-04T10:48:04.706Z,101076.80
2017-09-04T10:50:32.348Z,101077.36
2017-09-04T10:52:59.947Z,101075.80
2017-09-04T10:55:27.602Z,101072.73
2017-09-04T10:57:55.195Z,101078.00
2017-09-04T11:00:22.806Z,101079.22
2017-09-04T11:02:50.464Z,101074.70
2017-09-04T11:05:18.058Z,101068.59
2017-09-04T11:07:45.685Z,101068.66
2017-09-04T11:10:13.294Z,101075.40
2017-09-04T11:12:40.939Z,101073.88
2017-09-04T11:15:08.542Z,101070.93
2017-09-04T11:17:36.153Z,101066.71
2017-09-04T11:20:03.743Z,101060.47
2017-09-04T11:22:31.363Z,101057.37
2017-09-04T11:24:58.976Z,101068.14
2017-09-04T11:27:26.739Z,101069.06
2017-09-04T11:29:54.322Z,101057.85
2017-09-04T11:32:21.934Z,101065.58
2017-09-04T11:34:49.558Z,101056.69
2017-09-04T11:37:17.183Z,101054.75
2017-09-04T11:39:44.785Z,101056.23
2017-09-04T11:42:12.414Z,101061.83
2017-09-04T11:44:40.021Z,101061.81
2017-09-04T11:47:07.663Z,101068.86
2017-09-04T11:49:35.258Z,101061.44
2017-09-04T11:52:02.853Z,101072.28
2017-09-04T11:54:30.475Z,101057.27
2017-09-04T11:56:58.062Z,101062.69
2017-09-04T11:59:25.679Z,101069.05
2017-09-04T12:01:53.271Z,101063.31
2017-09-04T12:04:20.886Z,101065.73
2017-09-04T12:06:48.615Z,101074.67
2017-09-04T12:09:16.259Z,101068.05
2017-09-04T12:11:43.846Z,101078.63
2017-09-04T12:14:11.474Z,101072.45
2017-09-04T12:16:39.075Z,101076.66
2017-09-04T12:19:06.697Z,101079.56
2017-09-04T12:21:34.292Z,101067.22
2017-09-04T12:24:01.893Z,101075.37
2017-09-04T12:26:29.528Z,101067.73
2017-09-04T12:28:57.150Z,101065.98
2017-09-04T12:31:24.861Z,101070.58
2017-09-04T12:33:52.458Z,101073.23
2017-09-04T12:36:20.070Z,101076.42
2017-09-04T12:38:47.674Z,101080.62
2017-09-04T12:41:15.310Z,101073.88
2017-09-04T12:43:42.920Z,101069.89
2017-09-04T12:46:10.550Z,101069.36
2017-09-04T12:48:38.184Z,101066.09
2017-09-04T12:51:05.810Z,101071.83
2017-09-04T12:53:33.398Z,101077.15
2017-09-04T12:56:01.071Z,101074.75
2017-09-04T12:58:28.667Z,101090.77
2017-09-04T13:00:56.299Z,101090.22
2017-09-04T13:03:23.921Z,101092.93
2017-09-04T13:05:51.559Z,101098.86
2017-09-04T13:08:19.163Z,101105.66
2017-09-04T13:10:52.214Z,101109.09
2017-09-04T13:13:23.218Z,101113.11
2017-09-04T13:15:56.278Z,101108.45
2017-09-04T13:21:41.428Z,101113.31
2017-09-04T13:27:14.282Z,101125.95
2017-09-04T13:32:48.495Z,101102.23
2017-09-04T13:38:22.353Z,101110.58
2017-09-04T13:40:55.470Z,101112.41
2017-09-04T13:46:41.805Z,101111.13
2017-09-04T13:49:14.976Z,101121.67
2017-09-04T13:51:47.656Z,101121.63
2017-09-04T13:54:20.894Z,101122.36
2017-09-04T13:56:48.936Z,101114.14
2017-09-04T13:59:22.136Z,101113.28
2017-09-04T14:01:55.211Z,101103.91
2017-09-04T14:04:28.452Z,101108.53
2017-09-04T14:07:01.635Z,101101.17
2017-09-04T14:09:34.696Z,101106.72
2017-09-04T14:12:07.787Z,101113.00
2017-09-04T14:14:40.823Z,101112.36
2017-09-04T14:20:08.119Z,101114.47
2017-09-04T14:22:35.766Z,101119.22
2017-09-04T14:25:03.355Z,101115.12
2017-09-04T14:27:30.966Z,101118.63
2017-09-04T14:29:58.583Z,101119.82
2017-09-04T14:32:26.981Z,101112.81
2017-09-04T14:34:54.568Z,101115.95
2017-09-04T14:37:22.164Z,101107.70
2017-09-04T14:39:49.774Z,101105.22
2017-09-04T14:42:17.375Z,101104.34
2017-09-04T14:44:47.469Z,101096.39
2017-09-04T14:47:17.427Z,101100.89
2017-09-04T14:49:45.052Z,101102.20
2017-09-04T14:52:12.648Z,101104.43
2017-09-04T14:54:40.271Z,101108.19
2017-09-04T14:57:07.880Z,101107.52
2017-09-04T14:59:35.503Z,101096.34
2017-09-04T15:02:03.098Z,101102.56
2017-09-04T15:04:30.762Z,101111.43
2017-09-04T15:06:58.378Z,101111.56
2017-09-04T15:09:25.964Z,101110.86
2017-09-04T15:11:53.617Z,101106.76
2017-09-04T15:14:21.197Z,101107.09
2017-09-04T15:16:48.814Z,101101.79
2017-09-04T15:19:16.407Z,101098.03
2017-09-04T15:21:44.027Z,101102.13
2017-09-04T15:24:11.700Z,101104.01
2017-09-04T15:26:39.321Z,101112.17
2017-09-04T15:29:06.919Z,101113.83
2017-09-04T15:31:34.698Z,101111.35
2017-09-04T15:34:02.364Z,101112.02
2017-09-04T15:36:30.001Z,101114.61
2017-09-04T15:38:57.643Z,101123.47
2017-09-04T15:41:25.267Z,101121.81
2017-09-04T15:43:52.887Z,101126.15
2017-09-04T15:46:20.478Z,101123.97
2017-09-04T15:48:48.091Z,101121.89
2017-09-04T15:51:15.706Z,101125.16
2017-09-04T15:53:43.315Z,101124.87
2017-09-04T15:56:11.023Z,101132.09
2017-09-04T15:58:38.636Z,101133.55
2017-09-04T16:01:06.274Z,101132.77
2017-09-04T16:03:33.908Z,101129.07
2017-09-04T16:06:01.874Z,101131.31
2017-09-04T16:08:29.462Z,101133.73
2017-09-04T16:10:58.626Z,101128.98
2017-09-04T16:13:26.226Z,101131.95
2017-09-04T16:15:53.828Z,101135.00
2017-09-04T16:18:25.824Z,101138.61
2017-09-04T16:20:55.759Z,101150.70
2017-09-04T16:23:33.290Z,101149.52
2017-09-04T16:26:00.911Z,101160.67
2017-09-04T16:28:30.558Z,101160.17
2017-09-04T16:30:58.169Z,101154.17
2017-09-04T16:33:29.212Z,101152.88
2017-09-04T16:38:59.598Z,101165.45
2017-09-04T16:41:27.198Z,101167.39
2017-09-04T16:43:54.807Z,101176.61
2017-09-04T16:46:30.798Z,101172.31
2017-09-04T16:49:04.422Z,101166.70
2017-09-04T16:51:35.567Z,101165.30
2017-09-04T16:54:08.738Z,101171.39
2017-09-04T16:59:32.496Z,101171.46
2017-09-04T17:02:00.184Z,101177.00
2017-09-04T17:04:28.565Z,101179.57
2017-09-04T17:06:56.208Z,101184.48
2017-09-04T17:09:23.879Z,101175.75
2017-09-04T17:14:48.665Z,101177.88
2017-09-04T17:17:16.376Z,101165.05
2017-09-04T17:19:57.650Z,101174.67
2017-09-04T17:22:25.645Z,101168.98
2017-09-04T17:24:53.255Z,101170.87
2017-09-04T17:27:20.911Z,101172.73
2017-09-04T17:29:48.514Z,101169.42
2017-09-04T17:32:16.145Z,101167.95
2017-09-04T17:34:43.738Z,101174.35
2017-09-04T17:37:11.370Z,101172.67
2017-09-04T17:39:39.003Z,101171.72
2017-09-04T17:42:06.634Z,101170.13
2017-09-04T17:44:34.787Z,101162.75
2017-09-04T17:47:02.480Z,101167.48
2017-09-04T17:49:30.084Z,101169.45
2017-09-04T17:51:57.712Z,101168.79
2017-09-04T17:54:25.422Z,101171.68
2017-09-04T17:56:53.006Z,101175.92
2017-09-04T17:59:20.668Z,101186.72
2017-09-04T18:01:48.294Z,101184.31
2017-09-04T18:04:15.953Z,101189.92
2017-09-04T18:06:43.570Z,101192.70
2017-09-04T18:09:11.261Z,101201.63
2017-09-04T18:11:38.862Z,101202.67
2017-09-04T18:14:06.501Z,101199.30
2017-09-04T18:16:34.110Z,101198.56
2017-09-04T18:19:01.752Z,101199.45
2017-09-04T18:21:29.364Z,101198.31
2017-09-04T18:23:56.990Z,101196.31
2017-09-04T18:26:24.609Z,101208.31
2017-09-04T18:28:52.289Z,101208.47
2017-09-04T18:31:19.971Z,101215.94
2017-09-04T18:33:47.593Z,101226.37
2017-09-04T18:36:15.210Z,101233.02
2017-09-04T18:38:42.841Z,101238.22
2017-09-04T18:41:10.435Z,101236.25
2017-09-04T18:43:38.066Z,101240.55
2017-09-04T18:46:05.675Z,101238.92
2017-09-04T18:48:33.292Z,101237.20
2017-09-04T18:51:00.907Z,101242.70
2017-09-04T18:53:28.538Z,101245.89
2017-09-04T18:55:56.127Z,101247.70
2017-09-04T18:58:23.746Z,101244.58
2017-09-04T19:00:51.350Z,101245.10
2017-09-04T19:03:18.987Z,101243.74
2017-09-04T19:05:46.594Z,101249.91
2017-09-04T19:08:14.247Z,101248.20
2017-09-04T19:10:41.843Z,101252.91
2017-09-04T19:13:09.503Z,101252.53
2017-09-04T19:15:37.203Z,101249.20
2017-09-04T19:18:04.843Z,101242.91
2017-09-04T19:20:32.463Z,101242.63
2017-09-04T19:23:00.140Z,101232.42
2017-09-04T19:25:27.735Z,101239.06
2017-09-04T19:27:55.379Z,101246.95
2017-09-04T19:30:22.989Z,101236.34
2017-09-04T19:32:50.637Z,101259.58
2017-09-04T19:35:18.250Z,101256.39
2017-09-04T19:37:45.874Z,101258.39
2017-09-04T19:40:13.519Z,101256.52
2017-09-04T19:42:41.182Z,101258.28
2017-09-04T19:45:08.798Z,101266.75
2017-09-04T19:47:36.427Z,101267.73
2017-09-04T19:50:04.069Z,101272.72
2017-09-04T19:52:31.684Z,101276.57
2017-09-04T19:54:59.490Z,101278.00
2017-09-04T19:57:27.107Z,101278.62
2017-09-04T19:59:54.845Z,101272.92
2017-09-04T20:02:22.462Z,101268.16
2017-09-04T20:04:50.100Z,101276.83
2017-09-04T20:07:17.719Z,101281.13
2017-09-04T20:09:45.407Z,101278.55
2017-09-04T20:12:13.008Z,101282.05
2017-09-04T20:14:40.676Z,101281.41
2017-09-04T20:17:08.267Z,101280.64
2017-09-04T20:19:35.915Z,101279.89
2017-09-04T20:22:03.526Z,101284.06
2017-09-04T20:24:31.234Z,101282.27
2017-09-04T20:26:58.843Z,101283.11
2017-09-04T20:29:26.466Z,101284.75
2017-09-04T20:31:54.083Z,101282.66
2017-09-04T20:34:21.918Z,101284.14
2017-09-04T20:36:49.537Z,101280.52
2017-09-04T20:39:17.170Z,101282.17
2017-09-04T20:41:44.817Z,101286.09
2017-09-04T20:44:12.504Z,101286.49
2017-09-04T20:46:40.099Z,101290.37
2017-09-04T20:49:07.774Z,101295.23
2017-09-04T20:51:35.402Z,101288.39
2017-09-04T20:54:03.037Z,101295.14
2017-09-04T20:56:30.637Z,101292.47
2017-09-04T20:58:58.291Z,101296.84
2017-09-04T21:01:25.899Z,101299.81
2017-09-04T21:03:53.566Z,101299.11
2017-09-04T21:06:21.170Z,101306.34
2017-09-04T21:08:48.826Z,101305.94
2017-09-04T21:11:16.430Z,101307.70
2017-09-04T21:13:44.071Z,101305.98
2017-09-04T21:16:11.670Z,101302.56
2017-09-04T21:18:39.270Z,101310.20
2017-09-04T21:21:06.899Z,101312.77
2017-09-04T21:23:34.538Z,101304.31
2017-09-04T21:26:02.147Z,101309.02
2017-09-04T21:28:29.827Z,101310.36
2017-09-04T21:30:57.420Z,101313.89
2017-09-04T21:33:25.103Z,101314.70
2017-09-04T21:35:52.706Z,101314.45
2017-09-04T21:38:20.333Z,101314.75
2017-09-04T21:40:47.922Z,101316.47
2017-09-04T21:43:15.567Z,101309.97
2017-09-04T21:45:44.066Z,101307.89
2017-09-04T21:48:11.711Z,101312.06
2017-09-04T21:50:39.324Z,101306.72
2017-09-04T21:53:06.994Z,101303.75
2017-09-04T21:55:34.613Z,101303.14
2017-09-04T21:58:02.202Z,101305.92
2017-09-04T22:00:29.868Z,101300.91
2017-09-04T22:02:57.461Z,101313.72
2017-09-04T22:05:25.106Z,101305.98
2017-09-04T22:07:52.714Z,101305.94
2017-09-04T22:10:20.363Z,101306.30
2017-09-04T22:12:47.979Z,101307.91
2017-09-04T22:15:15.610Z,101308.03
2017-09-04T22:17:43.208Z,101308.94
2017-09-04T22:20:10.843Z,101307.66
2017-09-04T22:22:38.444Z,101308.59
2017-09-04T22:25:06.114Z,101306.78
2017-09-04T22:27:33.775Z,101309.84
2017-09-04T22:30:01.374Z,101310.45
2017-09-04T22:32:28.971Z,101314.45
2017-09-04T22:34:56.606Z,101320.89
2017-09-04T22:37:24.202Z,101310.94
2017-09-04T22:39:51.858Z,101311.39
2017-09-04T22:42:19.463Z,101307.69
2017-09-04T22:44:47.168Z,101302.44
2017-09-04T22:47:14.734Z,101306.25
2017-09-04T22:49:42.354Z,101303.95
2017-09-04T22:52:09.948Z,101304.05
2017-09-04T22:54:37.599Z,101306.21
2017-09-04T22:57:05.202Z,101306.36
2017-09-04T22:59:32.870Z,101309.08
2017-09-04T23:02:00.487Z,101299.34
2017-09-04T23:04:28.123Z,101305.42
2017-09-04T23:06:55.743Z,101299.58
2017-09-04T23:09:23.415Z,101296.72
2017-09-04T23:11:50.987Z,101296.61
2017-09-04T23:14:18.611Z,101294.80
2017-09-04T23:16:46.212Z,101299.13
2017-09-04T23:19:13.935Z,101295.40
2017-09-04T23:21:41.543Z,101296.65
2017-09-04T23:24:09.182Z,101302.30
2017-09-04T23:26:36.807Z,101297.98
2017-09-04T23:29:04.437Z,101292.09
2017-09-04T23:31:32.095Z,101287.61
2017-09-04T23:33:59.721Z,101286.52
2017-09-04T23:36:27.322Z,101286.11
2017-09-04T23:38:54.947Z,101290.52
2017-09-04T23:41:22.538Z,101286.91
2017-09-04T23:43:50.166Z,101291.95
2017-09-04T23:46:17.762Z,101296.17
2017-09-04T23:48:45.463Z,101303.58
2017-09-04T23:51:13.047Z,101299.09
2017-09-04T23:53:40.710Z,101298.16
2017-09-04T23:56:08.295Z,101300.72
2017-09-04T23:58:35.918Z,101295.11
